Time;durP1;ratioP1;P1;durP2;ratioP2;P2;SDS_P1;SDS_P2;PMS_P1;PMS_P2;Temp;Humidity;BMP_temperature;BMP_pressure;BME280_temperature;BME280_humidity;BME280_pressure;Samples;Min_cycle;Max_cycle;Signal;HPM_P1;HPM_P2
2021/10/15 00:01:07;;;;;;;3.55;2.40;;;7.60;99.90;;;;;;5016578;28;20564;-84
2021/10/15 00:03:33;;;;;;;4.70;2.67;;;7.70;99.90;;;;;;5034357;28;20025;-85
2021/10/15 00:05:59;;;;;;;4.47;2.50;;;8.00;99.90;;;;;;5016520;28;20416;-85
2021/10/15 00:08:24;;;;;;;4.25;3.08;;;7.80;99.90;;;;;;5016426;28;20474;-85
2021/10/15 00:10:50;;;;;;;4.40;2.80;;;7.50;99.90;;;;;;5016599;28;20508;-85
2021/10/15 00:13:16;;;;;;;4.38;2.65;;;7.30;99.90;;;;;;5034175;28;20093;-85
2021/10/15 00:15:41;;;;;;;4.35;2.72;;;7.20;99.90;;;;;;5016355;28;20523;-85
2021/10/15 00:18:07;;;;;;;4.50;2.47;;;7.30;99.90;;;;;;5016320;28;20136;-84
2021/10/15 00:20:33;;;;;;;7.22;2.80;;;7.30;99.90;;;;;;5034050;28;20030;-84
2021/10/15 00:22:58;;;;;;;5.72;3.22;;;7.20;99.90;;;;;;5016156;28;20414;-84
2021/10/15 00:25:24;;;;;;;4.22;3.08;;;7.40;99.90;;;;;;5016241;28;20026;-85
2021/10/15 00:27:50;;;;;;;6.68;3.08;;;7.50;99.90;;;;;;5016161;28;20021;-84
2021/10/15 00:30:15;;;;;;;6.32;3.38;;;7.30;99.90;;;;;;5016194;28;20105;-85
2021/10/15 00:32:41;;;;;;;5.38;2.90;;;7.30;99.90;;;;;;5034097;28;20021;-84
2021/10/15 00:35:07;;;;;;;6.22;3.13;;;7.40;99.90;;;;;;5016087;28;20037;-84
2021/10/15 00:37:33;;;;;;;4.32;3.28;;;7.50;99.90;;;;;;5015932;28;20037;-85
2021/10/15 00:39:58;;;;;;;5.32;3.22;;;7.30;99.90;;;;;;5015912;28;20025;-85
2021/10/15 00:42:24;;;;;;;5.47;2.97;;;7.40;99.90;;;;;;5015881;28;20033;-84
2021/10/15 00:44:50;;;;;;;5.07;3.42;;;7.50;99.90;;;;;;5015350;28;20116;-85
2021/10/15 00:47:15;;;;;;;6.78;2.95;;;7.60;99.90;;;;;;5015638;28;20017;-85
2021/10/15 00:49:41;;;;;;;4.05;2.83;;;7.50;99.90;;;;;;5015904;28;20116;-85
2021/10/15 00:52:09;;;;;;;6.43;3.70;;;7.40;99.90;;;;;;5015983;28;20069;-84
2021/10/15 00:54:36;;;;;;;5.43;3.22;;;7.20;99.90;;;;;;5015724;28;20033;-85
2021/10/15 00:57:02;;;;;;;5.40;3.15;;;6.90;99.90;;;;;;5033406;28;20037;-84
2021/10/15 00:59:28;;;;;;;5.63;3.33;;;7.10;99.90;;;;;;5015396;28;20144;-85
2021/10/15 01:01:53;;;;;;;5.55;3.40;;;7.20;99.90;;;;;;5033329;28;20101;-84
2021/10/15 01:04:19;;;;;;;5.95;3.22;;;7.30;99.90;;;;;;5015965;28;20071;-85
2021/10/15 01:06:45;;;;;;;8.23;3.67;;;7.30;99.90;;;;;;5015615;28;20129;-84
2021/10/15 01:09:11;;;;;;;7.03;3.55;;;7.30;99.90;;;;;;5015519;28;20497;-85
2021/10/15 01:11:37;;;;;;;6.25;3.10;;;7.30;99.90;;;;;;5033516;28;20025;-85
2021/10/15 01:14:03;;;;;;;5.45;3.60;;;7.20;99.90;;;;;;5015464;28;20025;-84
2021/10/15 01:16:31;;;;;;;7.15;2.83;;;7.20;99.90;;;;;;5015437;28;20075;-85
2021/10/15 01:18:59;;;;;;;8.00;3.05;;;7.40;99.90;;;;;;5015562;28;20029;-85
2021/10/15 01:21:26;;;;;;;4.25;3.00;;;7.40;99.90;;;;;;5033841;28;20026;-85
2021/10/15 01:23:52;;;;;;;5.18;2.85;;;7.40;99.90;;;;;;5015632;28;20021;-85
2021/10/15 01:26:18;;;;;;;5.00;3.05;;;7.30;99.90;;;;;;5015329;28;20065;-85
2021/10/15 01:28:43;;;;;;;5.65;3.40;;;7.40;99.90;;;;;;5015131;28;20049;-85
2021/10/15 01:31:09;;;;;;;6.75;3.25;;;7.20;99.90;;;;;;5015494;28;20543;-85
2021/10/15 01:33:35;;;;;;;5.65;3.25;;;7.00;99.90;;;;;;5015374;28;20064;-85
2021/10/15 01:36:01;;;;;;;4.43;3.15;;;7.00;99.90;;;;;;5033269;28;20378;-85
2021/10/15 01:38:27;;;;;;;8.07;3.60;;;7.00;99.90;;;;;;5032917;28;20036;-85
2021/10/15 01:40:53;;;;;;;6.35;3.35;;;7.30;99.90;;;;;;5015175;28;20025;-85
2021/10/15 01:43:21;;;;;;;4.90;3.25;;;7.00;99.90;;;;;;5015258;28;20022;-85
2021/10/15 01:45:46;;;;;;;5.53;3.30;;;6.90;99.90;;;;;;5015130;28;20488;-85
2021/10/15 01:48:12;;;;;;;5.68;3.10;;;6.80;99.90;;;;;;5015190;28;20021;-85
2021/10/15 01:50:38;;;;;;;4.35;3.13;;;6.90;99.90;;;;;;5032895;28;20021;-85
2021/10/15 01:53:04;;;;;;;6.40;3.28;;;6.80;99.90;;;;;;5015117;28;20053;-85
2021/10/15 01:55:29;;;;;;;6.75;3.83;;;6.90;99.90;;;;;;5015114;28;20025;-85
2021/10/15 01:57:55;;;;;;;11.20;3.95;;;6.80;99.90;;;;;;5018089;28;20029;-85
2021/10/15 02:00:21;;;;;;;7.03;3.67;;;6.90;99.90;;;;;;5018680;28;20394;-85
2021/10/15 02:02:46;;;;;;;4.22;3.00;;;6.80;99.90;;;;;;5018858;28;20132;-85
2021/10/15 02:05:15;;;;;;;6.25;3.38;;;6.80;99.90;;;;;;5036845;28;20026;-85
2021/10/15 02:07:41;;;;;;;4.50;3.03;;;6.90;99.90;;;;;;5018815;28;20403;-85
2021/10/15 02:10:09;;;;;;;7.55;3.30;;;6.90;99.90;;;;;;5018759;28;20021;-85
2021/10/15 02:12:36;;;;;;;5.32;3.90;;;6.80;99.90;;;;;;5019476;28;20025;-85
2021/10/15 02:15:02;;;;;;;5.50;3.45;;;6.70;99.90;;;;;;5018638;28;20052;-84
2021/10/15 02:17:28;;;;;;;6.47;2.97;;;6.70;99.90;;;;;;5019475;28;20028;-85
2021/10/15 02:19:54;;;;;;;6.68;3.25;;;6.70;99.90;;;;;;5018652;28;20029;-85
2021/10/15 02:22:19;;;;;;;4.75;2.60;;;6.60;99.90;;;;;;5036483;28;20109;-85
2021/10/15 02:24:45;;;;;;;4.05;3.13;;;6.80;99.90;;;;;;5018474;28;20477;-85
2021/10/15 02:27:11;;;;;;;5.85;3.08;;;7.20;99.90;;;;;;5036132;28;20025;-85
2021/10/15 02:29:37;;;;;;;5.30;2.97;;;7.30;99.90;;;;;;5018318;28;20413;-85
2021/10/15 02:32:03;;;;;;;7.60;3.53;;;7.10;99.90;;;;;;5018289;28;20120;-85
2021/10/15 02:34:29;;;;;;;5.80;3.33;;;6.80;99.90;;;;;;5018244;28;20029;-85
2021/10/15 02:36:54;;;;;;;5.40;3.03;;;6.60;99.90;;;;;;5018271;28;20362;-85
2021/10/15 02:39:20;;;;;;;4.47;3.08;;;6.70;99.90;;;;;;5036153;28;20032;-85
2021/10/15 02:41:46;;;;;;;3.92;2.70;;;6.60;99.90;;;;;;5018061;28;20477;-85
2021/10/15 02:44:13;;;;;;;5.32;3.58;;;6.60;99.90;;;;;;5018115;28;20022;-85
2021/10/15 02:46:39;;;;;;;5.05;3.03;;;6.50;99.90;;;;;;5018066;28;20515;-85
2021/10/15 02:49:06;;;;;;;5.82;3.22;;;6.50;99.90;;;;;;5018001;28;20024;-85
2021/10/15 02:51:32;;;;;;;5.25;3.53;;;6.50;99.90;;;;;;5018078;28;20032;-85
2021/10/15 02:53:58;;;;;;;4.93;3.08;;;6.50;99.90;;;;;;5018073;28;20187;-85
2021/10/15 02:56:23;;;;;;;5.38;3.20;;;6.80;99.90;;;;;;5035887;28;20100;-85
2021/10/15 02:58:49;;;;;;;5.10;3.65;;;7.10;99.90;;;;;;5017590;28;20064;-85
2021/10/15 03:01:15;;;;;;;5.00;3.83;;;7.10;99.90;;;;;;5035455;28;20057;-85
2021/10/15 03:03:41;;;;;;;4.93;3.42;;;6.80;99.90;;;;;;5017737;28;20025;-85
2021/10/15 03:06:07;;;;;;;7.80;3.70;;;6.60;99.90;;;;;;5017697;28;20053;-85
2021/10/15 03:08:32;;;;;;;4.82;3.25;;;6.70;99.90;;;;;;5016719;28;20024;-85
2021/10/15 03:10:58;;;;;;;4.80;3.15;;;6.60;99.90;;;;;;5017652;28;20022;-85
2021/10/15 03:13:24;;;;;;;6.10;2.75;;;6.80;99.90;;;;;;5035641;28;20049;-85
2021/10/15 03:15:49;;;;;;;6.13;2.88;;;6.80;99.90;;;;;;5017590;28;20060;-85
2021/10/15 03:18:15;;;;;;;7.75;3.33;;;6.70;99.90;;;;;;5017425;28;20117;-84
2021/10/15 03:20:41;;;;;;;4.70;2.97;;;6.60;99.90;;;;;;5017360;28;20026;-85
2021/10/15 03:23:08;;;;;;;4.65;2.85;;;6.80;99.90;;;;;;5017627;28;20033;-85
2021/10/15 03:25:34;;;;;;;4.13;2.60;;;7.20;99.90;;;;;;5017278;28;20538;-85
2021/10/15 03:27:59;;;;;;;7.30;3.10;;;7.40;99.90;;;;;;5017218;28;20025;-85
2021/10/15 03:30:26;;;;;;;3.78;2.67;;;7.30;99.90;;;;;;5017200;28;20022;-86
2021/10/15 03:32:52;;;;;;;5.22;2.83;;;7.50;99.90;;;;;;5035135;28;20100;-85
2021/10/15 03:35:17;;;;;;;3.90;2.90;;;7.40;99.90;;;;;;5017275;28;20039;-85
2021/10/15 03:37:43;;;;;;;7.70;3.10;;;7.50;99.90;;;;;;5034783;28;20026;-85
2021/10/15 03:40:09;;;;;;;3.47;2.75;;;7.40;99.90;;;;;;5017158;28;20079;-84
2021/10/15 03:42:36;;;;;;;3.95;2.90;;;7.50;99.90;;;;;;5035033;28;20029;-85
2021/10/15 03:45:02;;;;;;;3.75;2.50;;;7.40;99.90;;;;;;5017012;28;20028;-85
2021/10/15 03:47:28;;;;;;;3.80;2.88;;;7.40;99.90;;;;;;5034507;28;20076;-85
2021/10/15 03:49:53;;;;;;;4.63;2.80;;;7.60;99.90;;;;;;5016864;28;20489;-85
2021/10/15 03:52:19;;;;;;;5.03;2.97;;;7.60;99.90;;;;;;5016852;28;20029;-85
2021/10/15 03:54:45;;;;;;;4.90;3.20;;;7.50;99.90;;;;;;5016810;28;20108;-85
2021/10/15 03:57:10;;;;;;;4.10;3.17;;;7.50;99.90;;;;;;5016851;28;20032;-85
2021/10/15 03:59:36;;;;;;;4.35;2.72;;;7.50;99.90;;;;;;5016595;28;20053;-85
2021/10/15 04:02:02;;;;;;;11.30;3.38;;;7.20;99.90;;;;;;5016574;28;20476;-85
2021/10/15 04:04:28;;;;;;;7.43;3.15;;;7.00;99.90;;;;;;5016650;28;20095;-85
2021/10/15 04:06:55;;;;;;;3.67;2.67;;;6.80;99.90;;;;;;5034341;28;20021;-85
2021/10/15 04:09:21;;;;;;;5.82;2.80;;;6.80;99.90;;;;;;5016507;28;20435;-85
2021/10/15 04:11:47;;;;;;;3.70;2.70;;;6.80;99.90;;;;;;5016480;28;20030;-85
2021/10/15 04:14:12;;;;;;;3.42;2.50;;;6.80;99.90;;;;;;5016431;28;20033;-85
2021/10/15 04:16:38;;;;;;;3.22;2.60;;;7.00;99.90;;;;;;5016405;28;20025;-85
2021/10/15 04:19:04;;;;;;;4.15;2.80;;;7.10;99.90;;;;;;5016288;28;20503;-85
2021/10/15 04:21:29;;;;;;;6.38;2.95;;;7.40;99.90;;;;;;5016196;28;20044;-85
2021/10/15 04:23:55;;;;;;;3.50;2.70;;;7.60;99.90;;;;;;5016318;28;20017;-85
2021/10/15 04:26:21;;;;;;;4.03;2.40;;;7.80;99.90;;;;;;5033915;28;20021;-85
2021/10/15 04:28:47;;;;;;;11.32;3.35;;;7.80;99.90;;;;;;5016183;28;20053;-85
2021/10/15 04:31:12;;;;;;;7.38;3.17;;;7.80;99.90;;;;;;5016200;28;20095;-85
2021/10/15 04:33:38;;;;;;;5.15;3.00;;;7.30;99.90;;;;;;5016150;28;20022;-85
2021/10/15 04:36:04;;;;;;;4.38;3.22;;;7.30;99.90;;;;;;5015967;28;20021;-85
2021/10/15 04:38:29;;;;;;;3.63;2.58;;;7.60;99.90;;;;;;5033940;28;20021;-85
2021/10/15 04:40:55;;;;;;;4.72;2.17;;;7.90;99.90;;;;;;5015863;28;20025;-85
2021/10/15 04:43:21;;;;;;;3.28;2.95;;;8.20;99.90;;;;;;5015902;28;20116;-85
2021/10/15 04:45:47;;;;;;;4.45;2.83;;;8.30;99.90;;;;;;5015851;28;20030;-85
2021/10/15 04:48:12;;;;;;;6.68;3.38;;;8.20;99.90;;;;;;5015942;28;20029;-85
2021/10/15 04:50:38;;;;;;;6.45;3.30;;;8.00;99.90;;;;;;5033521;28;20028;-85
2021/10/15 04:53:05;;;;;;;5.85;3.15;;;7.60;99.90;;;;;;5015819;28;20064;-85
2021/10/15 04:55:31;;;;;;;3.42;2.72;;;7.20;99.90;;;;;;5015638;28;20025;-85
2021/10/15 04:57:58;;;;;;;5.30;3.22;;;7.00;99.90;;;;;;5015769;28;20494;-84
2021/10/15 05:00:24;;;;;;;5.38;3.20;;;6.80;99.90;;;;;;5015524;28;20053;-85
2021/10/15 05:02:51;;;;;;;4.75;2.80;;;6.80;99.90;;;;;;5015596;28;20029;-84
2021/10/15 05:05:24;;;;;;;6.85;3.10;;;6.70;99.90;;;;;;5033360;28;20018;-85
2021/10/15 05:07:50;;;;;;;6.20;2.88;;;6.60;99.90;;;;;;5015612;28;20029;-85
2021/10/15 05:10:16;;;;;;;4.75;3.50;;;6.50;99.90;;;;;;5015590;28;20033;-85
2021/10/15 05:12:42;;;;;;;5.43;2.90;;;6.50;99.90;;;;;;5033178;28;20022;-85
2021/10/15 05:15:12;;;;;;;5.35;2.97;;;6.50;99.90;;;;;;5015516;28;20572;-85
2021/10/15 05:17:39;;;;;;;4.75;2.55;;;6.60;99.90;;;;;;5015421;28;20084;-84
2021/10/15 05:20:07;;;;;;;4.30;3.10;;;6.70;99.90;;;;;;5015452;28;20112;-84
2021/10/15 05:22:33;;;;;;;4.50;3.03;;;7.00;99.90;;;;;;5015437;28;20036;-85
2021/10/15 05:24:58;;;;;;;6.25;3.63;;;6.90;99.90;;;;;;5015353;28;20485;-85
2021/10/15 05:27:24;;;;;;;4.93;3.50;;;6.90;99.90;;;;;;5015340;28;20026;-84
2021/10/15 05:29:50;;;;;;;9.20;3.75;;;6.60;99.90;;;;;;5015317;28;20017;-85
2021/10/15 05:32:17;;;;;;;4.47;3.13;;;6.80;99.90;;;;;;5017305;28;20029;-84
2021/10/15 05:34:44;;;;;;;26.23;15.68;;;6.60;99.90;;;;;;5019435;28;20048;-85
2021/10/15 05:37:10;;;;;;;29.27;16.58;;;6.60;99.90;;;;;;5019409;28;20032;-84
2021/10/15 05:39:36;;;;;;;7.95;5.72;;;6.90;99.90;;;;;;5020102;28;20523;-84
2021/10/15 05:42:02;;;;;;;8.48;5.85;;;6.80;99.90;;;;;;5019223;28;20030;-84
2021/10/15 05:44:28;;;;;;;8.98;4.47;;;6.80;99.90;;;;;;5019226;28;20029;-84
2021/10/15 05:46:53;;;;;;;7.05;5.53;;;6.90;99.90;;;;;;5019374;28;20026;-85
2021/10/15 05:49:19;;;;;;;8.23;3.78;;;6.80;99.90;;;;;;5019190;28;20499;-85
2021/10/15 05:51:49;;;;;;;5.15;3.28;;;6.60;99.90;;;;;;5019194;28;20021;-85
2021/10/15 05:54:23;;;;;;;10.38;3.75;;;6.50;99.90;;;;;;5036879;28;20183;-85
2021/10/15 05:59:29;;;;;;;6.25;3.05;;;6.40;99.90;;;;;;5036894;28;20045;-85
2021/10/15 06:02:00;;;;;;;4.43;2.95;;;6.40;99.90;;;;;;5036982;28;20104;-84
2021/10/15 06:15:02;;;;;;;7.35;3.42;;;6.60;99.90;;;;;;5036793;28;20040;-85
2021/10/15 06:17:28;;;;;;;4.20;3.10;;;6.50;99.90;;;;;;5018712;28;20400;-85
2021/10/15 06:19:54;;;;;;;14.02;6.90;;;6.80;99.90;;;;;;5036504;28;20022;-85
2021/10/15 06:22:25;;;;;;;9.30;4.75;;;6.80;99.90;;;;;;5018405;28;20559;-85
2021/10/15 06:24:52;;;;;;;8.38;4.40;;;6.70;99.90;;;;;;5036240;28;20453;-85
2021/10/15 06:27:19;;;;;;;9.45;5.10;;;6.80;99.90;;;;;;5018565;28;20202;-84
2021/10/15 06:29:45;;;;;;;8.27;4.35;;;7.00;99.90;;;;;;5018518;28;20060;-84
2021/10/15 06:32:11;;;;;;;7.15;3.80;;;7.20;99.90;;;;;;5018320;28;20489;-85
2021/10/15 06:34:37;;;;;;;7.65;3.50;;;7.50;99.90;;;;;;5018188;28;20117;-85
2021/10/15 06:37:02;;;;;;;5.40;3.47;;;7.50;99.90;;;;;;5036002;28;20025;-85
2021/10/15 06:39:28;;;;;;;7.00;3.90;;;7.30;99.90;;;;;;5018128;28;20029;-85
2021/10/15 06:41:54;;;;;;;4.95;3.83;;;7.20;99.90;;;;;;5035787;28;20029;-85
2021/10/15 06:44:19;;;;;;;7.22;3.53;;;7.10;99.90;;;;;;5016827;28;20028;-84
2021/10/15 06:46:45;;;;;;;5.93;3.50;;;7.30;99.90;;;;;;5018072;28;20018;-85
2021/10/15 06:49:11;;;;;;;8.45;3.85;;;7.50;99.90;;;;;;5018047;28;20595;-85
2021/10/15 06:51:37;;;;;;;6.93;3.53;;;7.20;99.90;;;;;;5018792;28;20381;-85
2021/10/15 06:54:03;;;;;;;5.63;3.42;;;7.10;99.90;;;;;;5017970;28;20512;-85
2021/10/15 06:56:29;;;;;;;6.88;3.33;;;7.20;99.90;;;;;;5018257;28;20022;-85
2021/10/15 06:58:56;;;;;;;6.80;4.05;;;7.40;99.90;;;;;;5020169;28;20056;-85
2021/10/15 07:01:22;;;;;;;10.80;4.28;;;7.60;99.90;;;;;;5002857;28;20037;-84
2021/10/15 07:03:47;;;;;;;9.18;4.35;;;7.70;99.90;;;;;;5036240;28;20025;-84
2021/10/15 07:06:13;;;;;;;8.93;5.10;;;7.80;99.90;;;;;;5018461;28;20017;-85
2021/10/15 07:08:39;;;;;;;8.93;5.05;;;7.70;99.90;;;;;;5017893;28;20481;-84
2021/10/15 07:11:04;;;;;;;6.32;3.55;;;7.70;99.90;;;;;;5018355;28;20060;-85
2021/10/15 07:13:31;;;;;;;5.90;3.72;;;7.90;99.90;;;;;;5018569;28;20021;-85
2021/10/15 07:15:58;;;;;;;6.97;3.38;;;8.10;99.90;;;;;;5017826;28;20499;-85
2021/10/15 07:18:24;;;;;;;7.10;3.28;;;8.30;99.90;;;;;;5018165;28;20021;-85
2021/10/15 07:20:50;;;;;;;4.82;3.47;;;8.70;99.90;;;;;;5018361;28;20052;-85
2021/10/15 07:23:16;;;;;;;8.48;3.90;;;8.80;99.90;;;;;;5017766;28;20033;-85
2021/10/15 07:25:43;;;;;;;8.98;4.00;;;8.90;99.90;;;;;;5017984;28;20093;-85
2021/10/15 07:28:10;;;;;;;7.40;4.15;;;9.00;99.90;;;;;;5017572;28;20021;-85
2021/10/15 07:30:36;;;;;;;8.07;3.47;;;8.90;99.90;;;;;;5017803;28;20124;-85
2021/10/15 07:33:02;;;;;;;6.20;3.55;;;9.20;99.90;;;;;;5035399;28;20057;-85
2021/10/15 07:35:27;;;;;;;4.90;2.83;;;9.60;99.90;;;;;;5017057;28;20029;-85
2021/10/15 07:37:53;;;;;;;9.68;3.05;;;9.70;99.90;;;;;;5016965;28;20025;-84
2021/10/15 07:40:19;;;;;;;10.98;3.22;;;9.80;99.90;;;;;;5017093;28;20120;-84
2021/10/15 07:42:44;;;;;;;6.47;2.97;;;10.00;99.90;;;;;;5017001;28;20033;-84
2021/10/15 07:45:10;;;;;;;11.00;3.63;;;9.90;99.90;;;;;;5016878;28;20526;-85
2021/10/15 07:47:36;;;;;;;4.70;3.35;;;9.70;99.90;;;;;;5016830;28;20075;-85
2021/10/15 07:50:23;;;;;;;6.22;3.20;;;10.00;99.90;;;;;;5041363;28;20024;-85
2021/10/15 07:52:49;;;;;;;6.82;3.30;;;10.10;99.90;;;;;;5026457;28;20089;-86
2021/10/15 07:55:15;;;;;;;4.40;2.85;;;10.10;99.90;;;;;;5044431;28;20029;-86
2021/10/15 07:57:41;;;;;;;5.40;3.33;;;10.10;99.90;;;;;;5016996;28;20033;-86
2021/10/15 08:00:09;;;;;;;5.60;3.00;;;10.10;99.90;;;;;;5017819;28;20049;-86
2021/10/15 08:02:34;;;;;;;9.00;2.75;;;10.50;99.90;;;;;;5017203;28;20032;-86
2021/10/15 08:05:00;;;;;;;6.00;2.90;;;10.60;99.90;;;;;;5017126;28;20025;-85
2021/10/15 08:07:26;;;;;;;3.17;2.33;;;10.70;99.90;;;;;;5016948;28;20156;-86
2021/10/15 08:09:52;;;;;;;5.75;3.20;;;10.70;99.90;;;;;;5016699;28;20022;-86
2021/10/15 08:12:18;;;;;;;10.38;3.45;;;11.00;99.90;;;;;;5016546;28;20029;-86
2021/10/15 08:14:45;;;;;;;4.95;2.88;;;11.20;99.90;;;;;;5016598;28;20396;-86
2021/10/15 08:17:11;;;;;;;4.70;2.80;;;11.30;99.90;;;;;;5034400;28;20037;-86
2021/10/15 08:19:38;;;;;;;4.45;2.58;;;11.60;99.90;;;;;;5034087;28;20026;-86
2021/10/15 08:22:04;;;;;;;7.57;2.88;;;11.80;99.90;;;;;;5016255;28;20060;-86
2021/10/15 08:24:30;;;;;;;5.10;2.80;;;11.90;99.90;;;;;;5033981;28;20022;-86
2021/10/15 08:26:56;;;;;;;3.63;2.70;;;11.90;99.90;;;;;;5016793;28;20120;-87
2021/10/15 08:29:23;;;;;;;7.35;4.00;;;12.10;99.90;;;;;;5016260;28;20045;-86
2021/10/15 08:31:50;;;;;;;7.35;4.90;;;12.20;99.90;;;;;;5016178;28;20029;-86
2021/10/15 08:34:17;;;;;;;11.15;5.13;;;12.30;99.90;;;;;;5016261;28;20029;-86
2021/10/15 08:36:44;;;;;;;7.97;4.45;;;12.40;99.90;;;;;;5016180;28;20477;-86
2021/10/15 08:39:11;;;;;;;5.97;3.50;;;12.50;99.90;;;;;;5015919;28;20025;-87
2021/10/15 08:41:37;;;;;;;8.20;3.42;;;12.70;99.90;;;;;;5015899;28;20451;-87
2021/10/15 08:44:03;;;;;;;5.80;2.95;;;12.80;99.90;;;;;;5016027;28;20025;-86
2021/10/15 08:46:30;;;;;;;8.15;3.28;;;12.80;99.90;;;;;;5033598;28;20021;-86
2021/10/15 08:48:55;;;;;;;4.55;2.63;;;13.10;99.90;;;;;;5015859;28;20022;-86
2021/10/15 08:51:22;;;;;;;8.00;3.08;;;13.20;99.90;;;;;;5015763;28;20025;-86
2021/10/15 08:53:49;;;;;;;5.00;2.90;;;13.50;99.90;;;;;;5033512;28;20021;-86
2021/10/15 08:56:17;;;;;;;5.93;2.50;;;13.30;99.90;;;;;;5016308;28;20029;-86
2021/10/15 08:58:47;;;;;;;5.20;3.28;;;13.20;99.90;;;;;;5015829;28;20033;-86
2021/10/15 09:01:14;;;;;;;8.60;3.20;;;13.50;99.90;;;;;;5015718;28;20041;-86
2021/10/15 09:03:40;;;;;;;7.03;3.00;;;13.80;99.90;;;;;;5015722;28;20021;-86
2021/10/15 09:06:08;;;;;;;8.50;3.20;;;14.20;99.90;;;;;;4998584;28;20035;-86
2021/10/15 09:08:54;;;;;;;4.68;3.05;;;14.30;99.90;;;;;;5015509;28;20025;-86
2021/10/15 09:11:36;;;;;;;5.00;2.30;;;14.40;99.90;;;;;;5015583;28;20022;-86
2021/10/15 09:14:11;;;;;;;9.77;2.55;;;14.70;99.90;;;;;;5016717;28;20017;-87
2021/10/15 09:17:09;;;;;;;6.15;2.40;;;14.90;99.90;;;;;;5015545;28;20021;-86
2021/10/15 09:19:40;;;;;;;8.95;2.78;;;14.90;99.90;;;;;;5015563;28;20385;-87
2021/10/15 09:22:21;;;;;;;4.18;2.00;;;15.10;99.90;;;;;;5015632;28;20068;-86
2021/10/15 09:24:55;;;;;;;6.50;2.80;;;15.00;99.90;;;;;;5015578;28;20111;-86
2021/10/15 09:27:38;;;;;;;8.00;2.83;;;14.90;99.90;;;;;;5015527;28;20021;-86
2021/10/15 09:30:10;;;;;;;5.70;2.53;;;15.00;99.90;;;;;;5015519;28;20064;-86
2021/10/15 09:32:39;;;;;;;3.88;2.08;;;15.00;99.90;;;;;;5033242;28;20193;-86
2021/10/15 09:35:07;;;;;;;4.60;1.80;;;15.30;99.90;;;;;;5033172;28;20021;-86
2021/10/15 09:37:35;;;;;;;6.35;2.00;;;15.30;99.90;;;;;;5015478;28;20030;-86
2021/10/15 09:40:02;;;;;;;6.78;2.13;;;15.60;99.90;;;;;;5016873;28;20381;-86
2021/10/15 09:42:30;;;;;;;4.03;2.05;;;15.80;99.90;;;;;;5015293;28;20078;-86
2021/10/15 09:45:03;;;;;;;3.05;1.77;;;16.00;99.90;;;;;;5015247;28;20021;-86
2021/10/15 09:47:28;;;;;;;6.55;2.88;;;16.20;99.90;;;;;;5015520;28;20473;-82
2021/10/15 09:49:57;;;;;;;3.60;1.73;;;16.20;99.90;;;;;;5015396;28;20026;-86
2021/10/15 09:52:45;;;;;;;4.20;2.13;;;16.10;99.90;;;;;;5015423;28;20029;-86
2021/10/15 09:57:51;;;;;;;4.60;2.10;;;16.70;99.90;;;;;;5150782;22;20093;-84
2021/10/15 10:00:27;;;;;;;6.30;2.33;;;17.00;99.90;;;;;;5072925;28;20020;-84
2021/10/15 10:02:54;;;;;;;3.97;2.00;;;17.00;99.90;;;;;;5054724;28;20063;-85
2021/10/15 10:05:20;;;;;;;5.47;2.10;;;17.10;99.90;;;;;;5054798;28;20033;-84
2021/10/15 10:07:49;;;;;;;4.88;1.95;;;17.20;99.90;;;;;;5072965;28;20379;-85
2021/10/15 10:10:17;;;;;;;7.97;2.30;;;17.30;99.90;;;;;;5054644;28;20025;-85
2021/10/15 10:12:44;;;;;;;3.25;1.92;;;17.70;99.90;;;;;;5072716;28;20024;-85
2021/10/15 10:15:19;;;;;;;6.22;2.00;;;17.90;99.90;;;;;;5054722;28;20471;-85
2021/10/15 10:18:14;;;;;;;4.97;2.03;;;18.10;99.90;;;;;;5055720;28;20029;-85
2021/10/15 10:20:46;;;;;;;4.55;1.90;;;18.10;99.90;;;;;;5058647;28;20491;-85
2021/10/15 10:23:26;;;;;;;4.05;1.67;;;18.50;99.90;;;;;;5058298;28;20380;-84
2021/10/15 10:26:00;;;;;;;2.83;1.80;;;18.70;99.90;;;;;;5058432;28;20467;-85
2021/10/15 10:28:27;;;;;;;8.38;2.60;;;18.70;99.90;;;;;;5075871;28;20033;-84
2021/10/15 10:30:56;;;;;;;3.65;1.50;;;18.70;99.90;;;;;;5058376;28;20024;-85
2021/10/15 10:33:23;;;;;;;3.28;2.13;;;18.80;99.90;;;;;;5058281;28;20052;-84
2021/10/15 10:35:52;;;;;;;4.38;2.50;;;18.50;99.90;;;;;;5058260;28;20542;-85
2021/10/15 10:38:21;;;;;;;4.20;2.35;;;18.80;99.90;;;;;;5058563;28;20538;-85
2021/10/15 10:41:04;;;;;;;6.07;2.58;;;18.90;99.90;;;;;;5058165;28;20029;-86
2021/10/15 10:43:35;;;;;;;4.22;1.90;;;18.00;99.90;;;;;;5058027;28;20029;-85
2021/10/15 10:46:15;;;;;;;11.82;2.10;;;18.40;99.90;;;;;;5058173;28;20017;-85
2021/10/15 10:48:50;;;;;;;3.83;2.30;;;18.90;99.90;;;;;;5075942;28;20021;-84
2021/10/15 10:51:16;;;;;;;;;;;18.70;99.90;;;;;;5058241;28;20111;-84
2021/10/15 10:54:03;;;;;;;6.30;2.05;;;19.00;99.90;;;;;;5057750;28;19916;-84
2021/10/15 10:56:38;;;;;;;9.10;1.77;;;19.10;99.90;;;;;;5056939;28;20040;-84
2021/10/15 10:59:21;;;;;;;4.20;1.70;;;19.80;99.90;;;;;;5057586;28;20070;-85
2021/10/15 11:01:48;;;;;;;3.85;2.00;;;20.30;99.90;;;;;;5057650;28;20090;-85
2021/10/15 11:04:42;;;;;;;5.88;2.08;;;20.80;99.90;;;;;;5057694;28;20020;-85
2021/10/15 11:07:20;;;;;;;2.83;1.67;;;20.20;99.90;;;;;;5057588;28;20024;-85
2021/10/15 11:09:50;;;;;;;2.85;1.70;;;20.30;99.90;;;;;;5057540;28;20020;-85
2021/10/15 11:12:20;;;;;;;2.97;1.60;;;20.60;99.90;;;;;;5057309;28;20029;-85
2021/10/15 11:14:55;;;;;;;3.10;1.88;;;20.90;99.90;;;;;;5057340;28;20361;-85
2021/10/15 11:17:49;;;;;;;8.10;1.67;;;21.50;99.90;;;;;;5075386;28;20024;-85
2021/10/15 11:20:21;;;;;;;3.40;1.80;;;21.60;99.90;;;;;;5057400;28;20081;-85
2021/10/15 11:23:08;;;;;;;4.70;1.88;;;22.20;99.30;;;;;;5057134;28;20509;-90
2021/10/15 11:25:39;;;;;;;3.70;1.73;;;22.00;99.20;;;;;;5057330;28;20035;-86
2021/10/15 11:28:11;;;;;;;2.20;1.65;;;21.80;99.10;;;;;;5057197;28;20052;-86
2021/10/15 11:30:39;;;;;;;4.85;1.73;;;21.30;99.20;;;;;;5056493;28;20111;-86
2021/10/15 11:33:10;;;;;;;7.72;1.60;;;21.50;99.50;;;;;;5057135;28;20070;-85
2021/10/15 11:35:37;;;;;;;2.30;1.50;;;21.30;99.20;;;;;;5057179;28;20400;-85
2021/10/15 11:38:06;;;;;;;3.40;1.52;;;21.60;98.30;;;;;;5057028;28;20391;-85
2021/10/15 11:40:40;;;;;;;2.88;1.60;;;21.50;98.30;;;;;;5056969;28;20123;-85
2021/10/15 11:43:08;;;;;;;;;;;21.60;98.50;;;;;;5057218;28;20032;-86
2021/10/15 11:45:37;;;;;;;3.85;1.63;;;21.80;98.00;;;;;;5056823;28;19911;-85
2021/10/15 11:48:20;;;;;;;6.18;1.70;;;21.70;97.40;;;;;;5056813;28;20478;-85
2021/10/15 11:50:57;;;;;;;6.18;1.35;;;22.00;97.40;;;;;;5056901;28;20055;-85
2021/10/15 11:53:31;;;;;;;4.70;1.70;;;22.60;96.20;;;;;;5056790;28;20025;-85
2021/10/15 11:55:57;;;;;;;5.37;1.70;;;22.50;96.20;;;;;;5056905;28;20119;-85
2021/10/15 11:58:26;;;;;;;6.60;1.80;;;22.70;96.10;;;;;;5056454;28;20083;-86
2021/10/15 12:01:14;;;;;;;5.82;1.50;;;22.10;95.60;;;;;;5074342;28;20036;-85
2021/10/15 12:03:51;;;;;;;2.15;1.30;;;22.60;95.70;;;;;;5056492;28;20131;-84
2021/10/15 12:06:35;;;;;;;2.17;1.30;;;22.80;94.60;;;;;;5056503;28;20502;-85
2021/10/15 12:09:16;;;;;;;4.27;1.70;;;23.10;94.30;;;;;;5056390;28;20027;-84
2021/10/15 12:11:51;;;;;;;2.42;1.35;;;22.60;94.90;;;;;;5056306;28;20274;-85
2021/10/15 12:14:19;;;;;;;2.90;1.38;;;23.20;94.40;;;;;;5074218;28;20021;-85
2021/10/15 12:16:49;;;;;;;4.90;1.67;;;22.50;94.50;;;;;;5056207;28;20020;-84
2021/10/15 12:19:17;;;;;;;5.20;1.50;;;22.50;94.60;;;;;;5074063;28;20021;-84
2021/10/15 12:21:45;;;;;;;6.32;1.48;;;22.00;94.70;;;;;;5056047;28;20032;-84
2021/10/15 12:24:32;;;;;;;4.25;1.42;;;22.30;94.90;;;;;;5073937;28;20483;-84
2021/10/15 12:27:20;;;;;;;2.95;1.60;;;22.50;94.60;;;;;;5057266;28;20023;-85
2021/10/15 12:29:55;;;;;;;4.82;1.40;;;22.00;94.90;;;;;;5055999;28;20017;-85
2021/10/15 12:32:23;;;;;;;3.80;1.70;;;21.00;95.90;;;;;;5073958;28;20111;-85
2021/10/15 12:34:59;;;;;;;2.10;1.05;;;20.40;96.80;;;;;;5074784;28;20082;-84
2021/10/15 12:37:35;;;;;;;2.58;1.40;;;19.50;97.60;;;;;;5055900;28;20029;-85
2021/10/15 12:40:29;;;;;;;6.05;4.00;;;19.20;98.30;;;;;;5073771;28;20033;-85
2021/10/15 12:42:55;;;;;;;3.42;1.35;;;18.90;99.40;;;;;;5055871;28;20059;-85
2021/10/15 12:45:41;;;;;;;2.20;1.40;;;18.80;99.80;;;;;;5073629;28;20020;-85
2021/10/15 12:48:22;;;;;;;2.20;1.67;;;18.60;99.90;;;;;;5056881;28;20020;-85
2021/10/15 12:51:04;;;;;;;4.32;1.92;;;18.40;99.90;;;;;;5055848;28;20047;-87
2021/10/15 12:53:39;;;;;;;3.03;1.50;;;18.20;99.90;;;;;;5055926;28;20030;-87
2021/10/15 12:56:18;;;;;;;2.97;1.77;;;17.80;99.90;;;;;;5055541;28;20383;-86
2021/10/15 12:58:56;;;;;;;2.70;1.60;;;17.60;99.90;;;;;;5055866;28;20097;-86
2021/10/15 13:01:30;;;;;;;2.65;1.40;;;17.50;99.90;;;;;;5055529;28;20036;-87
2021/10/15 13:03:57;;;;;;;6.68;1.80;;;17.50;99.90;;;;;;5055586;28;20028;-86
2021/10/15 13:06:23;;;;;;;5.95;1.60;;;17.50;99.90;;;;;;5055566;28;20368;-86
2021/10/15 13:08:50;;;;;;;4.78;1.83;;;17.50;99.90;;;;;;5055367;28;20024;-86
2021/10/15 13:11:21;;;;;;;4.18;1.67;;;17.30;99.90;;;;;;5055494;28;20101;-87
2021/10/15 13:13:48;;;;;;;2.58;1.52;;;17.00;99.90;;;;;;5055341;28;20112;-86
2021/10/15 13:16:16;;;;;;;2.20;1.70;;;16.80;99.90;;;;;;5055393;28;20025;-86